Pagrindinis puslapis
METAR-TAF:

METAR-TAF

Oro uostai :

Esbjergas, Danija

platuma: 55-32N, ilguma: 008-34E, Aukštis: 30 m

Dabartinis oras

Ataskaita buvo paskelbta 36 minutes, ne 12:20 UTC
Vėjas 15 kt iš Vakarų
Temperatūra 6°C
Drėgmė 81%
Slėgis 1008 hPa
Matomumas 10 km arba daugiau

METAR: EKEB 191220Z AUTO 28015KT 9999 FEW020/// 06/03 Q1008

Laikas: 13:56 (12:56 UTC)

Prognozė

Ataskaita buvo paskelbta 1 valandą ir 56 minutes, ne 11:00 UTC
Prognozė galioja nuo 19 metu 12 UTC su 19 metu 21 UTC
Vėjas 12 kt iš Vakarų
Matomumas 10 km arba daugiau
Su prošvaistėmis ne aukštis 2000 ft
Laikinai
nuo 19 metu 13 UTC su 19 metu 16 UTC
Matomumas: 4000 m
Su prošvaistėmis ne aukštis 800 ft
Išsisklaidę debesys ne aukštis 2000 ft, Liūtiniai kamuoliniai debesys.
lietus

TAF: EKEB 191100Z 1912/1921 28012KT 9999 BKN020 TEMPO 1913/1916 4000 SHRA BKN008 SCT020CB

Orai ataskaitas ir orų prognozės (METAR, TAF).

turimą stotys yra geltonos ir raudonos taškus žemėlapyje.

Perkelti pele per norėdami pamatyti stoties vardą.

Tada spustelėkite, norėdami matyti oro stebėjimo ir prognozės.

Norėdami pakeisti žemėlapį: spustelėkite ant žalios mygtukų su juodo kryžiaus žemyn,; žalią mygtuką su brūkšneliu, jei norite nutolinti; arba žalių rodyklių gretimoms žemėlapius.


METAR-TAF: